Map

Track Data

SID SEASON NUMBER BASIN SUBBASIN NAME ISO_TIME NATURE LAT LON WMO_WIND WMO_PRES WMO_AGENCY TRACK_TYPE DIST2LAND LANDFALL IFLAG USA_AGENCY USA_ATCF_ID USA_LAT USA_LON USA_RECORD USA_STATUS USA_WIND USA_PRES USA_SSHS USA_R34_NE USA_R34_SE USA_R34_SW USA_R34_NW USA_R50_NE USA_R50_SE USA_R50_SW USA_R50_NW USA_R64_NE USA_R64_SE USA_R64_SW USA_R64_NW USA_POCI USA_ROCI USA_RMW USA_EYE TOKYO_LAT TOKYO_LON TOKYO_GRADE TOKYO_WIND TOKYO_PRES TOKYO_R50_DIR TOKYO_R50_LONG TOKYO_R50_SHORT TOKYO_R30_DIR TOKYO_R30_LONG TOKYO_R30_SHORT TOKYO_LAND CMA_LAT CMA_LON CMA_CAT CMA_WIND CMA_PRES HKO_LAT HKO_LON HKO_CAT HKO_WIND HKO_PRES NEWDELHI_LAT NEWDELHI_LON NEWDELHI_GRADE NEWDELHI_WIND NEWDELHI_PRES NEWDELHI_CI NEWDELHI_DP NEWDELHI_POCI REUNION_LAT REUNION_LON REUNION_TYPE REUNION_WIND REUNION_PRES REUNION_TNUM REUNION_CI REUNION_RMW REUNION_R34_NE REUNION_R34_SE REUNION_R34_SW REUNION_R34_NW REUNION_R50_NE REUNION_R50_SE REUNION_R50_SW REUNION_R50_NW REUNION_R64_NE REUNION_R64_SE REUNION_R64_SW REUNION_R64_NW BOM_LAT BOM_LON BOM_TYPE BOM_WIND BOM_PRES BOM_TNUM BOM_CI BOM_RMW BOM_R34_NE BOM_R34_SE BOM_R34_SW BOM_R34_NW BOM_R50_NE BOM_R50_SE BOM_R50_SW BOM_R50_NW BOM_R64_NE BOM_R64_SE BOM_R64_SW BOM_R64_NW BOM_ROCI BOM_POCI BOM_EYE BOM_POS_METHOD BOM_PRES_METHOD NADI_LAT NADI_LON NADI_CAT NADI_WIND NADI_PRES WELLINGTON_LAT WELLINGTON_LON WELLINGTON_WIND WELLINGTON_PRES DS824_LAT DS824_LON DS824_STAGE DS824_WIND DS824_PRES TD9636_LAT TD9636_LON TD9636_STAGE TD9636_WIND TD9636_PRES TD9635_LAT TD9635_LON TD9635_WIND TD9635_PRES TD9635_ROCI NEUMANN_LAT NEUMANN_LON NEUMANN_CLASS NEUMANN_WIND NEUMANN_PRES MLC_LAT MLC_LON MLC_CLASS MLC_WIND MLC_PRES USA_GUST BOM_GUST BOM_GUST_PER REUNION_GUST REUNION_GUST_PER USA_SEAHGT USA_SEARAD_NE USA_SEARAD_SE USA_SEARAD_SW USA_SEARAD_NW STORM_SPEED STORM_DIR
1881146N14067 1881 16 NI AS NOT_NAMED 1881-05-26 00:00:00 TS 13.8000 66.7000 main 770 770 _________O____ -1 13.8000 66.7000 TC 64 0 0
1881146N14067 1881 16 NI AS NOT_NAMED 1881-05-26 03:00:00 TS 13.8000 66.7000 main 770 770 _________PO___ -1 13.8000 66.7000 TC 64 13.8000 66.7000 4 0 0
1881146N14067 1881 16 NI AS NOT_NAMED 1881-05-26 06:00:00 TS 13.8044 66.7006 main 770 770 _________OP___ -1 13.8000 66.7000 TC 64 13.8109 66.7016 4 0 0
1881146N14067 1881 16 NI AS NOT_NAMED 1881-05-26 09:00:00 TS 13.8075 66.7011 main 770 770 _________PP___ -1 13.8000 66.7000 TC 64 13.8175 66.7025 4 0 0
1881146N14067 1881 16 NI AS NOT_NAMED 1881-05-26 12:00:00 TS 13.8077 66.7011 main 770 770 _________OP___ -1 13.8000 66.7000 TC 64 13.8153 66.7022 4 0 0
1881146N14067 1881 16 NI AS NOT_NAMED 1881-05-26 15:00:00 TS 13.8000 66.7000 main 770 770 _________PO___ -1 13.8000 66.7000 TC 64 13.8000 66.7000 4 0 0
1881146N14067 1881 16 NI AS NOT_NAMED 1881-05-26 18:00:00 TS 13.7858 66.6980 main 770 770 _________OP___ -1 13.8000 66.7000 TC 64 13.7716 66.6959 4 0 199
1881146N14067 1881 16 NI AS NOT_NAMED 1881-05-26 21:00:00 TS 13.7625 66.6963 main 770 770 _________PP___ -1 13.7775 66.7000 TC 64 13.7475 66.6925 4 0 0
1881146N14067 1881 16 NI AS NOT_NAMED 1881-05-27 00:00:00 TS 13.7748 66.6964 main 770 765 _________OP___ -1 13.8000 66.7000 TC 64 13.7497 66.6928 4 1 0
1881146N14067 1881 16 NI AS NOT_NAMED 1881-05-27 03:00:00 TS 13.8600 66.6963 main 765 761 _________PO___ -1 13.9200 66.6925 TC 64 13.8000 66.7000 4 2 0
1881146N14067 1881 16 NI AS NOT_NAMED 1881-05-27 06:00:00 TS 14.0123 66.7109 main 761 753 _________OP___ -1 14.1000 66.7000 TC 64 13.9247 66.7218 4 3 9
1881146N14067 1881 16 NI AS NOT_NAMED 1881-05-27 09:00:00 TS 14.1988 66.7500 main 753 735 _________PP___ -1 14.3000 66.7500 TC 64 14.0975 66.7499 4 4 11
1881146N14067 1881 16 NI AS NOT_NAMED 1881-05-27 12:00:00 TS 14.3983 66.7890 main 735 728 _________OP___ -1 14.5000 66.8000 TC 64 14.2966 66.7781 4 4 8
1881146N14067 1881 16 NI AS NOT_NAMED 1881-05-27 15:00:00 TS 14.5750 66.8038 main 728 724 _________PO___ -1 14.6500 66.8075 TC 64 14.5000 66.8000 4 3 5
1881146N14067 1881 16 NI AS NOT_NAMED 1881-05-27 18:00:00 TS 14.7375 66.8076 main 724 718 _________OP___ -1 14.8000 66.8000 TC 64 14.6750 66.8153 4 3 4
1881146N14067 1881 16 NI AS NOT_NAMED 1881-05-27 21:00:00 TS 14.9212 66.8150 main 718 713 _________PP___ -1 14.9925 66.8075 TC 64 14.8500 66.8225 4 4 2
1881146N14067 1881 16 NI AS NOT_NAMED 1881-05-28 00:00:00 TS 15.1125 66.8092 main 713 708 _________OP___ -1 15.2000 66.8000 TC 64 15.0250 66.8184 4 4 356
1881146N14067 1881 16 NI AS NOT_NAMED 1881-05-28 03:00:00 TS 15.3038 66.7788 main 708 705 _________PO___ -1 15.4075 66.7575 TC 64 15.2000 66.8000 4 4 349
1881146N14067 1881 16 NI AS NOT_NAMED 1881-05-28 06:00:00 TS 15.4855 66.7362 main 714 712 _________OP___ -1 15.6000 66.7000 TC 64 15.3709 66.7725 4 4 347
1881146N14067 1881 16 NI AS NOT_NAMED 1881-05-28 09:00:00 TS 15.6462 66.6937 main 712 697 _________PP___ -1 15.7500 66.6575 TC 64 15.5425 66.7299 4 3 343
1881146N14067 1881 16 NI AS NOT_NAMED 1881-05-28 12:00:00 TS 15.8089 66.6362 main 703 685 _________OP___ -1 15.9000 66.6000 TC 64 15.7178 66.6724 4 4 339
1881146N14067 1881 16 NI AS NOT_NAMED 1881-05-28 15:00:00 TS 15.9963 66.5538 main 685 672 _________PO___ -1 16.0925 66.5075 TC 64 15.9000 66.6000 4 4 337
1881146N14067 1881 16 NI AS NOT_NAMED 1881-05-28 18:00:00 TS 16.1943 66.4652 main 672 660 _________OP___ -1 16.3000 66.4000 TC 64 16.0887 66.5305 4 4 337
1881146N14067 1881 16 NI AS NOT_NAMED 1881-05-28 21:00:00 TS 16.3887 66.3798 main 660 649 _________PP___ -1 16.4925 66.3149 TC 64 16.2849 66.4448 4 4 335
1881146N14067 1881 16 NI AS NOT_NAMED 1881-05-29 00:00:00 TS 16.5943 66.2683 main 649 638 _________OP___ -1 16.7000 66.2000 TC 64 16.4887 66.3367 4 5 329
1881146N14067 1881 16 NI AS NOT_NAMED 1881-05-29 03:00:00 TS 16.8250 66.1075 main 645 636 _________PO___ -1 16.9500 66.0150 TC 64 16.7000 66.2000 4 6 324
1881146N14067 1881 16 NI AS NOT_NAMED 1881-05-29 06:00:00 TS 17.0609 65.9164 main 635 635 _________OP___ -1 17.2000 65.8000 TC 64 16.9219 66.0329 4 6 321
1881146N14067 1881 16 NI AS NOT_NAMED 1881-05-29 09:00:00 TS 17.2788 65.7187 main 635 634 _________PP___ -1 17.4075 65.5999 TC 64 17.1500 65.8375 4 6 318
1881146N14067 1881 16 NI AS NOT_NAMED 1881-05-29 12:00:00 TS 17.4891 65.5117 main 634 634 _________OP___ -1 17.6000 65.4000 TC 64 17.3781 65.6234 4 6 317
1881146N14067 1881 16 NI AS NOT_NAMED 1881-05-29 15:00:00 TS 17.7000 65.3037 main 634 625 _________PO___ -1 17.8000 65.2074 TC 64 17.6000 65.4000 4 6 317
1881146N14067 1881 16 NI AS NOT_NAMED 1881-05-29 18:00:00 TS 17.9075 65.1011 main 632 623 _________OP___ -1 18.0000 65.0000 TC 64 17.8151 65.2023 4 6 316
1881146N14067 1881 16 NI AS NOT_NAMED 1881-05-29 21:00:00 TS 18.1110 64.8836 main 628 625 _________PP___ -1 18.1999 64.7724 TC 64 18.0221 64.9947 4 6 312
1881146N14067 1881 16 NI AS NOT_NAMED 1881-05-30 00:00:00 TS 18.3091 64.6324 main 633 623 _________OP___ -1 18.4000 64.5000 TC 64 18.2181 64.7648 4 7 307
1881146N14067 1881 16 NI AS NOT_NAMED 1881-05-30 03:00:00 TS 18.5075 64.3325 main 614 576 _________PO___ -1 18.6150 64.1651 TC 64 18.4000 64.5000 4 7 302
1881146N14067 1881 16 NI AS NOT_NAMED 1881-05-30 06:00:00 TS 18.6863 63.9950 main 576 543 _________OP___ -1 18.8000 63.8000 TC 64 18.5725 64.1900 4 7 296
1881146N14067 1881 16 NI AS NOT_NAMED 1881-05-30 09:00:00 TS 18.8225 63.6474 main 534 502 _________PP___ -1 18.9149 63.4499 TC 64 18.7300 63.8450 4 7 291
1881146N14067 1881 16 NI AS NOT_NAMED 1881-05-30 12:00:00 TS 18.9362 63.2887 main 502 461 _________OP___ -1 19.0000 63.1000 TC 64 18.8725 63.4775 4 7 289
1881146N14067 1881 16 NI AS NOT_NAMED 1881-05-30 15:00:00 TS 19.0499 62.9287 main 461 423 _________PO___ -1 19.0999 62.7574 TC 64 19.0000 63.1000 4 7 288
1881146N14067 1881 16 NI AS NOT_NAMED 1881-05-30 18:00:00 TS 19.1634 62.5539 main 423 382 _________OP___ -1 19.2000 62.4000 TC 64 19.1267 62.7078 4 8 287
1881146N14067 1881 16 NI AS NOT_NAMED 1881-05-30 21:00:00 TS 19.2764 62.1488 main 374 343 _________PP___ -1 19.3151 61.9851 TC 64 19.2378 62.3126 4 8 285
1881146N14067 1881 16 NI AS NOT_NAMED 1881-05-31 00:00:00 TS 19.3649 61.7680 main 343 320 _________OP___ -1 19.4000 61.6000 TC 64 19.3299 61.9360 4 7 281
1881146N14067 1881 16 NI AS NOT_NAMED 1881-05-31 03:00:00 TS 19.4037 61.4599 main 320 298 _________PO___ -1 19.4074 61.3199 TC 64 19.4000 61.6000 4 5 276
1881146N14067 1881 16 NI AS NOT_NAMED 1881-05-31 06:00:00 TS 19.4211 61.2117 main 298 275 _________OP___ -1 19.4000 61.1000 TC 64 19.4421 61.3235 4 4 276
1881146N14067 1881 16 NI AS NOT_NAMED 1881-05-31 09:00:00 TS 19.4535 60.9911 main 275 257 _________PP___ -1 19.4425 60.8925 TC 64 19.4646 61.0896 4 4 280
1881146N14067 1881 16 NI AS NOT_NAMED 1881-05-31 12:00:00 TS 19.4899 60.7930 main 257 239 _________OP___ -1 19.5000 60.7000 TC 64 19.4797 60.8860 4 4 281
1881146N14067 1881 16 NI AS NOT_NAMED 1881-05-31 15:00:00 TS 19.5250 60.5962 main 239 215 _________PO___ -1 19.5500 60.4925 TC 64 19.5000 60.7000 4 4 282
1881146N14067 1881 16 NI AS NOT_NAMED 1881-05-31 18:00:00 TS 19.5652 60.4073 main 215 207 _________OP___ -1 19.6000 60.3000 TC 64 19.5305 60.5146 4 3 284
1881146N14067 1881 16 NI AS NOT_NAMED 1881-05-31 21:00:00 TS 19.6061 60.2461 main 198 183 _________PP___ -1 19.6424 60.1500 TC 64 19.5698 60.3423 4 3 288
1881146N14067 1881 16 NI AS NOT_NAMED 1881-06-01 00:00:00 TS 19.6621 60.0870 main 183 165 _________OP___ -1 19.7000 60.0000 TC 64 19.6242 60.1739 4 4 293
1881146N14067 1881 16 NI AS NOT_NAMED 1881-06-01 03:00:00 TS 19.7425 59.9037 main 165 142 _________PO___ -1 19.7850 59.8075 TC 64 19.7000 60.0000 4 4 298
1881146N14067 1881 16 NI AS NOT_NAMED 1881-06-01 06:00:00 TS 19.8517 59.7056 main 137 113 _________OP___ -1 19.9000 59.6000 TC 64 19.8034 59.8113 4 4 303
1881146N14067 1881 16 NI AS NOT_NAMED 1881-06-01 09:00:00 TS 19.9849 59.5075 main 113 89 _________PP___ -1 20.0425 59.4000 TC 64 19.9274 59.6150 4 5 307
1881146N14067 1881 16 NI AS NOT_NAMED 1881-06-01 12:00:00 TS 20.1314 59.3056 main 89 61 _________OP___ -1 20.2000 59.2000 TC 64 20.0627 59.4112 4 5 308
1881146N14067 1881 16 NI AS NOT_NAMED 1881-06-01 15:00:00 TS 20.2787 59.1037 main 61 38 _________PO___ -1 20.3574 59.0075 TC 56 20.2000 59.2000 4 5 306
1881146N14067 1881 16 NI AS NOT_NAMED 1881-06-01 18:00:00 TS 20.4038 58.9038 main 38 15 _________OP___ -1 20.5000 58.8000 TC 49 20.3317 58.9817 4 5 301
1881146N14067 1881 16 NI AS NOT_NAMED 1881-06-01 21:00:00 TS 20.5187 58.6786 main 15 0 _________PP___ -1 20.6101 58.5600 TC 41 20.4578 58.7577 4 5 297
1881146N14067 1881 16 NI AS NOT_NAMED 1881-06-02 00:00:00 TS 20.6199 58.4533 main 0 0 _________OP___ -1 20.7000 58.3000 TC 34 20.5799 58.5299 4 4 297
1881146N14067 1881 16 NI AS NOT_NAMED 1881-06-02 03:00:00 NR 20.7000 58.3000 main 0 __________O___ -1 TC 20.7000 58.3000 2 3 299

About IBTrACS Database

This database is a web-friendly format of International Best Track Archive for Climate Stewardship (IBTrACS), a global best track data archive curated by NOAA dating back to 1842.

Updated: 2021-10-21